KCEZ/CEZ METAR and TAF weather

Enter ICAO airport designator
Station Type Date Time Source
KCEZ METAR 2019/10/16 18:53 UTC NOAA

KCEZ 161853Z AUTO 00000KT 10SM CLR 21/M09 A3031 RMK AO2 SLP220 T02061094


Station Type Date Time Source
KCEZ Decoded METAR 2019/10/16 18:53 UTC NOAA

CORTEZ MONTEZUMA COUNTY AIRPORT , CO, United States (KCEZ) 37-18N 108-38W 1797M
Oct 16, 2019 - 02:53 PM EDT / 2019.10.16 1853 UTC
Wind: Calm:0
Visibility: 10 mile(s):0
Sky conditions: clear
Temperature: 69.1 F (20.6 C)
Dew Point: 15.1 F (-9.4 C)
Relative Humidity: 12%
Pressure (altimeter): 30.31 in. Hg (1026 hPa)
ob: KCEZ 161853Z AUTO 00000KT 10SM CLR 21/M09 A3031 RMK AO2 SLP220 T02061094
cycle: 19

Station Type Date Time Source
KCEZ TAF UTC NOAA

Error!

Example: see airport list